Terminal Aerodrome Forecast
Issued by NWS Wilmington, OH

Current Version | Previous Version | Graphics & Text | Print | Product List | Glossary On
Versions: 1 2 3 4 5 6 7 8 9 10 11 12 13 14 15 16 17 18 19 20 21
000
FTUS41 KILN 270540
TAFCMH
TAF
KCMH 270540Z 2706/2806 00000KT P6SM FEW040 BKN150
      TEMPO 2709/2713 4SM BR
     FM271400 07004KT P6SM SCT025 BKN120
     FM272200 02004KT P6SM SCT100
      TEMPO 2802/2806 00000KT 5SM BR SKC=

USA.gov is the U.S. government's official web portal to all federal, state and local government web resources and services.